Observation data for Silverton on 01/19/2019      Previous  Date  Next       Current Mesonet Observations  Soil Data  Daily Summary Page  Observations in Plain Language
KSVS 190600Z 35022G32KT 00/M03 A3001 RMK A01 T00011032  RH  079%=      5-min Rain = 0
KSVS 190605Z 35024G33KT 00/M03 A3002 RMK A01 T00021032  RH  079%=      5-min Rain = 0
KSVS 190610Z 35024G33KT 00/M03 A3002 RMK A01 T00031032  RH  078%=      5-min Rain = 0
KSVS 190615Z 34022G29KT 00/M03 A3002 RMK A01 T00021030  RH  079%=      5-min Rain = 0
KSVS 190620Z 34024G30KT 00/M03 A3003 RMK A01 T00021030  RH  080%=      5-min Rain = 0
KSVS 190625Z 34023G33KT 00/M03 A3003 RMK A01 T00021028  RH  081%=      5-min Rain = 0
KSVS 190630Z 34026G36KT 00/M03 A3003 RMK A01 T00021027  RH  082%=      5-min Rain = 0
KSVS 190635Z 34023G29KT 00/M03 A3004 RMK A01 T00021025  RH  083%=      5-min Rain = 0
KSVS 190640Z 34023G33KT 00/M03 A3004 RMK A01 T00021025  RH  083%=      5-min Rain = 0
KSVS 190645Z 34024G33KT 00/M02 A3004 RMK A01 T00031024  RH  083%=      5-min Rain = 0
KSVS 190650Z 34023G30KT 00/M02 A3004 RMK A01 T00031024  RH  083%=      5-min Rain = 0
KSVS 190655Z 34021KT 00/M02 A3004 RMK A01 T00031023  RH  083%=      5-min Rain = 0
KSVS 190700Z 34020G27KT 00/M02 A3004 RMK A01 T00031023  RH  083%=      5-min Rain = 0
KSVS 190705Z 34022G28KT 00/M02 A3004 RMK A01 T00041022  RH  083%=      5-min Rain = 0
KSVS 190710Z 34022G29KT 01/M02 A3004 RMK A01 T00051021  RH  083%=      5-min Rain = 0
KSVS 190715Z 34020G27KT 01/M02 A3004 RMK A01 T00051021  RH  083%=      5-min Rain = 0
KSVS 190720Z 33019G29KT 01/M02 A3005 RMK A01 T00061021  RH  083%=      5-min Rain = 0
KSVS 190725Z 33023KT 01/M02 A3005 RMK A01 T00071022  RH  082%=      5-min Rain = 0
KSVS 190730Z 33025G31KT 01/M02 A3005 RMK A01 T00081024  RH  080%=      5-min Rain = 0
KSVS 190735Z 33025G32KT 01/M03 A3005 RMK A01 T00081025  RH  079%=      5-min Rain = 0
KSVS 190740Z 33022G29KT 01/M03 A3005 RMK A01 T00081025  RH  079%=      5-min Rain = 0
KSVS 190745Z 33026G34KT 01/M03 A3005 RMK A01 T00071028  RH  078%=      5-min Rain = 0
KSVS 190750Z 33024G32KT 01/M03 A3006 RMK A01 T00051031  RH  077%=      5-min Rain = 0
KSVS 190755Z 33029G36KT 00/M03 A3006 RMK A01 T00041033  RH  077%=      5-min Rain = 0
KSVS 190800Z 33026G33KT 00/M04 A3006 RMK A01 T00011037  RH  076%=      5-min Rain = 0
KSVS 190805Z 34026G34KT M00/M04 A3006 RMK A01 T10011039  RH  076%=      5-min Rain = 0
KSVS 190810Z 33025G31KT M00/M04 A3007 RMK A01 T10011040  RH  076%=      5-min Rain = 0
KSVS 190815Z 33024G31KT M00/M04 A3007 RMK A01 T10021039  RH  076%=      5-min Rain = 0
KSVS 190820Z 33022G29KT M00/M04 A3007 RMK A01 T10041039  RH  077%=      5-min Rain = 0
KSVS 190825Z 34022G28KT M00/M04 A3007 RMK A01 T10041040  RH  077%=      5-min Rain = 0
KSVS 190830Z 34024G30KT M01/M04 A3007 RMK A01 T10051042  RH  076%=      5-min Rain = 0
KSVS 190835Z 34026G35KT M01/M04 A3008 RMK A01 T10061044  RH  076%=      5-min Rain = 0
KSVS 190840Z 34028G35KT M01/M05 A3008 RMK A01 T10071047  RH  075%=      5-min Rain = 0
KSVS 190845Z 34029G36KT M01/M05 A3008 RMK A01 T10091048  RH  075%=      5-min Rain = 0
KSVS 190850Z 34028G36KT M01/M05 A3009 RMK A01 T10101049  RH  075%=      5-min Rain = 0
KSVS 190855Z 34025G31KT M01/M05 A3009 RMK A01 T10121049  RH  076%=      5-min Rain = 0
KSVS 190900Z 34026G37KT M01/M05 A3009 RMK A01 T10111050  RH  075%=      5-min Rain = 0
KSVS 190905Z 34026G35KT M01/M05 A3009 RMK A01 T10121052  RH  074%=      5-min Rain = 0
KSVS 190910Z 34024G34KT M01/M05 A301 RMK A01 T10141053  RH  075%=      5-min Rain = 0
KSVS 190915Z 34025G34KT M02/M05 A301 RMK A01 T10151054  RH  075%=      5-min Rain = 0
KSVS 190920Z 34025G30KT M02/M05 A301 RMK A01 T10161054  RH  075%=      5-min Rain = 0
KSVS 190925Z 34025G31KT M02/M05 A301 RMK A01 T10171054  RH  076%=      5-min Rain = 0
KSVS 190930Z 34023G32KT M02/M06 A3011 RMK A01 T10181055  RH  076%=      5-min Rain = 0
KSVS 190935Z 34023G31KT M02/M06 A3011 RMK A01 T10181055  RH  076%=      5-min Rain = 0
KSVS 190940Z 33020G28KT M02/M06 A3011 RMK A01 T10201055  RH  077%=      5-min Rain = 0
KSVS 190945Z 33024G29KT M02/M06 A3012 RMK A01 T10191056  RH  076%=      5-min Rain = 0
KSVS 190950Z 33024G30KT M02/M06 A3012 RMK A01 T10201057  RH  076%=      5-min Rain = 0
KSVS 190955Z 33021G26KT M02/M06 A3012 RMK A01 T10201057  RH  076%=      5-min Rain = 0
KSVS 191000Z 34023G30KT M02/M06 A3012 RMK A01 T10211058  RH  076%=      5-min Rain = 0
KSVS 191005Z 34024G30KT M02/M06 A3012 RMK A01 T10211058  RH  076%=      5-min Rain = 0
KSVS 191010Z 34024G30KT M02/M06 A3012 RMK A01 T10221059  RH  076%=      5-min Rain = 0
KSVS 191015Z 34022G32KT M02/M06 A3013 RMK A01 T10221058  RH  076%=      5-min Rain = 0
KSVS 191020Z 34023G29KT M02/M06 A3013 RMK A01 T10211058  RH  076%=      5-min Rain = 0
KSVS 191025Z 34023G29KT M02/M06 A3013 RMK A01 T10211058  RH  076%=      5-min Rain = 0
KSVS 191030Z 34021G26KT M02/M06 A3013 RMK A01 T10211057  RH  076%=      5-min Rain = 0
KSVS 191035Z 34021G26KT M02/M06 A3013 RMK A01 T10211056  RH  077%=      5-min Rain = 0
KSVS 191040Z 34021G27KT M02/M06 A3013 RMK A01 T10201056  RH  077%=      5-min Rain = 0
KSVS 191045Z 34017G23KT M02/M06 A3013 RMK A01 T10211055  RH  077%=      5-min Rain = 0
KSVS 191050Z 33017KT M02/M06 A3014 RMK A01 T10221055  RH  078%=      5-min Rain = 0
KSVS 191055Z 33016G21KT M02/M06 A3014 RMK A01 T10231055  RH  079%=      5-min Rain = 0
KSVS 191100Z 32015KT M02/M06 A3015 RMK A01 T10241055  RH  080%=      5-min Rain = 0
KSVS 191105Z 32017G24KT M02/M05 A3015 RMK A01 T10221053  RH  080%=      5-min Rain = 0
KSVS 191110Z 33017G22KT M02/M05 A3015 RMK A01 T10221054  RH  079%=      5-min Rain = 0
KSVS 191115Z 32018KT M02/M05 A3015 RMK A01 T10221054  RH  079%=      5-min Rain = 0
KSVS 191120Z 32018G24KT M02/M06 A3015 RMK A01 T10231055  RH  079%=      5-min Rain = 0
KSVS 191125Z 32019G24KT M02/M05 A3015 RMK A01 T10221054  RH  079%=      5-min Rain = 0
KSVS 191130Z 32017G22KT M02/M05 A3015 RMK A01 T10231054  RH  079%=      5-min Rain = 0
KSVS 191135Z 32017KT M02/M05 A3015 RMK A01 T10231054  RH  079%=      5-min Rain = 0
KSVS 191140Z 31015KT M03/M05 A3015 RMK A01 T10251054  RH  080%=      5-min Rain = 0
KSVS 191145Z 31016G22KT M02/M05 A3016 RMK A01 T10241054  RH  080%=      5-min Rain = 0
KSVS 191150Z 32017KT M02/M05 A3016 RMK A01 T10231053  RH  080%=      5-min Rain = 0
KSVS 191155Z 31018KT M02/M05 A3016 RMK A01 T10231053  RH  080%=      5-min Rain = 0
KSVS 191200Z 32016KT M02/M05 A3016 RMK A01 T10241053  RH  080%=      5-min Rain = 0
KSVS 191205Z 32017KT M03/M05 A3016 RMK A01 T10251053  RH  081%=      5-min Rain = 0
KSVS 191210Z 32018G26KT M02/M05 A3016 RMK A01 T10241053  RH  081%=      5-min Rain = 0
KSVS 191215Z 32017G22KT M02/M05 A3017 RMK A01 T10241053  RH  081%=      5-min Rain = 0
KSVS 191220Z 32017KT M03/M05 A3017 RMK A01 T10251053  RH  081%=      5-min Rain = 0
KSVS 191225Z 32017G22KT M03/M05 A3017 RMK A01 T10261054  RH  082%=      5-min Rain = 0
KSVS 191230Z 33019KT M02/M05 A3017 RMK A01 T10231053  RH  081%=      5-min Rain = 0
KSVS 191235Z 33019G25KT M02/M05 A3018 RMK A01 T10241053  RH  081%=      5-min Rain = 0
KSVS 191240Z 33018G24KT M02/M05 A3018 RMK A01 T10241053  RH  081%=      5-min Rain = 0
KSVS 191245Z 33016KT M03/M05 A3018 RMK A01 T10271053  RH  082%=      5-min Rain = 0
KSVS 191250Z 32019KT M03/M05 A3018 RMK A01 T10251052  RH  082%=      5-min Rain = 0
KSVS 191255Z 33019G24KT M02/M05 A3018 RMK A01 T10241052  RH  081%=      5-min Rain = 0
KSVS 191300Z 33017KT M03/M05 A3018 RMK A01 T10261053  RH  082%=      5-min Rain = 0
KSVS 191305Z 33018KT M03/M05 A3018 RMK A01 T10271053  RH  083%=      5-min Rain = 0
KSVS 191310Z 33017G22KT M03/M05 A3019 RMK A01 T10281053  RH  083%=      5-min Rain = 0
KSVS 191315Z 33019G25KT M03/M05 A3019 RMK A01 T10261052  RH  083%=      5-min Rain = 0
KSVS 191320Z 33017G22KT M03/M05 A3019 RMK A01 T10271052  RH  083%=      5-min Rain = 0
KSVS 191325Z 33016G22KT M03/M05 A302 RMK A01 T10281052  RH  084%=      5-min Rain = 0
KSVS 191330Z 33016KT M03/M05 A302 RMK A01 T10271052  RH  083%=      5-min Rain = 0
KSVS 191335Z 33015G21KT M03/M05 A3021 RMK A01 T10281052  RH  084%=      5-min Rain = 0
KSVS 191340Z 33016KT M03/M05 A3021 RMK A01 T10271051  RH  084%=      5-min Rain = 0
KSVS 191345Z 33016KT M03/M05 A3022 RMK A01 T10261051  RH  083%=      5-min Rain = 0
KSVS 191350Z 33018KT M03/M05 A3022 RMK A01 T10251050  RH  083%=      5-min Rain = 0
KSVS 191355Z 33016KT M03/M05 A3022 RMK A01 T10251050  RH  083%=      5-min Rain = 0
KSVS 191400Z 33015KT M03/M05 A3022 RMK A01 T10251051  RH  083%=      5-min Rain = 0
KSVS 191405Z 33015G22KT M03/M05 A3022 RMK A01 T10251050  RH  083%=      5-min Rain = 0
KSVS 191410Z 33015KT M02/M05 A3023 RMK A01 T10241050  RH  083%=      5-min Rain = 0
KSVS 191415Z 33018G23KT M02/M05 A3023 RMK A01 T10221049  RH  082%=      5-min Rain = 0
KSVS 191420Z 33016KT M02/M05 A3023 RMK A01 T10211049  RH  081%=      5-min Rain = 0
KSVS 191425Z 33016KT M02/M05 A3024 RMK A01 T10201049  RH  081%=      5-min Rain = 0
KSVS 191430Z 33015KT M02/M05 A3024 RMK A01 T10191048  RH  081%=      5-min Rain = 0
KSVS 191435Z 33013KT M02/M05 A3025 RMK A01 T10191047  RH  081%=      5-min Rain = 0
KSVS 191440Z 33017KT M02/M05 A3025 RMK A01 T10181047  RH  081%=      5-min Rain = 0
KSVS 191445Z 33018G24KT M02/M05 A3025 RMK A01 T10191048  RH  081%=      5-min Rain = 0
KSVS 191450Z 33020G25KT M02/M05 A3026 RMK A01 T10181048  RH  080%=      5-min Rain = 0
KSVS 191455Z 33018G24KT M02/M05 A3026 RMK A01 T10191048  RH  081%=      5-min Rain = 0
KSVS 191500Z 33018G23KT M02/M05 A3027 RMK A01 T10191048  RH  080%=      5-min Rain = 0
KSVS 191505Z 33019G24KT M02/M05 A3027 RMK A01 T10181049  RH  080%=      5-min Rain = 0
KSVS 191510Z 33020G26KT M02/M05 A3027 RMK A01 T10181049  RH  079%=      5-min Rain = 0
KSVS 191515Z 33018KT M02/M05 A3027 RMK A01 T10171048  RH  080%=      5-min Rain = 0
KSVS 191520Z 33021G27KT M02/M05 A3028 RMK A01 T10171048  RH  079%=      5-min Rain = 0
KSVS 191525Z 33019G25KT M01/M04 A3028 RMK A01 T10101043  RH  078%=      5-min Rain = 0
KSVS 191530Z 33020G25KT M01/M04 A3028 RMK A01 T10061043  RH  076%=      5-min Rain = 0
KSVS 191535Z 34018G23KT M00/M04 A3029 RMK A01 T10041042  RH  076%=      5-min Rain = 0
KSVS 191540Z 34019G25KT M00/M04 A3029 RMK A01 T10041043  RH  076%=      5-min Rain = 0
KSVS 191545Z 34021KT M00/M04 A3029 RMK A01 T10021042  RH  075%=      5-min Rain = 0
KSVS 191550Z 34021KT M00/M04 A3029 RMK A01 T10011041  RH  075%=      5-min Rain = 0
KSVS 191555Z 34020G25KT 00/04 A3029 RMK A01 T00000-41  RH  074%=      5-min Rain = 0
KSVS 191600Z 34020KT 00/M04 A3029 RMK A01 T00011041  RH  074%=      5-min Rain = 0
KSVS 191605Z 34018G23KT 00/M04 A303 RMK A01 T00031039  RH  074%=      5-min Rain = 0
KSVS 191610Z 33017KT 00/M04 A303 RMK A01 T00041039  RH  073%=      5-min Rain = 0
KSVS 191615Z 33019KT 01/M04 A303 RMK A01 T00061038  RH  073%=      5-min Rain = 0
KSVS 191620Z 34018G25KT 01/M04 A303 RMK A01 T00081037  RH  072%=      5-min Rain = 0
KSVS 191625Z 34022KT 01/M04 A303 RMK A01 T00091038  RH  071%=      5-min Rain = 0
KSVS 191630Z 34019KT 01/M04 A303 RMK A01 T00121035  RH  071%=      5-min Rain = 0
KSVS 191635Z 34018KT 01/M04 A303 RMK A01 T00131036  RH  071%=      5-min Rain = 0
KSVS 191640Z 34018KT 01/M04 A303 RMK A01 T00141035  RH  070%=      5-min Rain = 0
KSVS 191645Z 35018G23KT 02/M04 A3031 RMK A01 T00161035  RH  069%=      5-min Rain = 0
KSVS 191650Z 35017KT 02/M03 A3031 RMK A01 T00181033  RH  069%=      5-min Rain = 0
KSVS 191655Z 34017KT 02/M03 A3031 RMK A01 T00221032  RH  068%=      5-min Rain = 0
KSVS 191700Z 35018G25KT 02/M03 A3032 RMK A01 T00221032  RH  068%=      5-min Rain = 0
KSVS 191705Z 35016G22KT 02/M03 A3032 RMK A01 T00211033  RH  068%=      5-min Rain = 0
KSVS 191710Z 34017KT 02/M03 A3032 RMK A01 T00221033  RH  067%=      5-min Rain = 0
KSVS 191715Z 34015KT 02/M03 A3032 RMK A01 T00231032  RH  067%=      5-min Rain = 0
KSVS 191720Z 35014G19KT 02/M03 A3032 RMK A01 T00231032  RH  067%=      5-min Rain = 0
KSVS 191725Z 34015KT 03/M03 A3031 RMK A01 T00291029  RH  066%=      5-min Rain = 0
KSVS 191730Z 35016G22KT 03/M03 A3031 RMK A01 T00291031  RH  065%=      5-min Rain = 0
KSVS 191735Z 35016G22KT 03/M03 A3031 RMK A01 T00311030  RH  064%=      5-min Rain = 0
KSVS 191740Z 34016KT 03/M03 A3031 RMK A01 T00331030  RH  064%=      5-min Rain = 0
KSVS 191745Z 36014KT 04/M03 A3031 RMK A01 T00351030  RH  063%=      5-min Rain = 0
KSVS 191750Z 34017G22KT 04/M03 A3031 RMK A01 T00371030  RH  062%=      5-min Rain = 0
KSVS 191755Z 35016KT 04/M03 A3031 RMK A01 T00391030  RH  061%=      5-min Rain = 0
KSVS 191800Z 34018G23KT 04/M03 A3031 RMK A01 T00381033  RH  060%=      5-min Rain = 0
KSVS 191805Z 35017G23KT 04/M03 A3031 RMK A01 T00391032  RH  060%=      5-min Rain = 0
KSVS 191810Z 34016KT 04/M03 A303 RMK A01 T00421031  RH  059%=      5-min Rain = 0
KSVS 191815Z 34014KT 04/M03 A303 RMK A01 T00421032  RH  059%=      5-min Rain = 0
KSVS 191820Z 34014G21KT 04/M03 A303 RMK A01 T00441031  RH  059%=      5-min Rain = 0
KSVS 191825Z 34015G22KT 05/M03 A303 RMK A01 T00461032  RH  057%=      5-min Rain = 0
KSVS 191830Z 33016G21KT 05/M03 A303 RMK A01 T00481032  RH  056%=      5-min Rain = 0
KSVS 191835Z 34018KT 05/M03 A3029 RMK A01 T00521032  RH  055%=      5-min Rain = 0
KSVS 191840Z 34018G23KT 06/M03 A303 RMK A01 T00551032  RH  054%=      5-min Rain = 0
KSVS 191845Z 35018G24KT 05/M04 A3029 RMK A01 T00521036  RH  053%=      5-min Rain = 0
KSVS 191850Z 34017KT 06/M04 A3029 RMK A01 T00551036  RH  052%=      5-min Rain = 0
KSVS 191855Z 35018KT 06/M03 A3029 RMK A01 T00571034  RH  052%=      5-min Rain = 0
KSVS 191900Z 34017G23KT 05/M04 A3029 RMK A01 T00541037  RH  052%=      5-min Rain = 0
KSVS 191905Z 35017KT 06/M04 A3028 RMK A01 T00571035  RH  052%=      5-min Rain = 0
KSVS 191910Z 34016G21KT 06/M04 A3028 RMK A01 T00561037  RH  052%=      5-min Rain = 0
KSVS 191915Z 35016G21KT 06/M04 A3028 RMK A01 T00581035  RH  052%=      5-min Rain = 0
KSVS 191920Z 35017KT 06/M04 A3028 RMK A01 T00591037  RH  051%=      5-min Rain = 0
KSVS 191925Z 35016G21KT 06/M04 A3027 RMK A01 T00601037  RH  050%=      5-min Rain = 0
KSVS 191930Z 35015G20KT 06/M04 A3027 RMK A01 T00631036  RH  049%=      5-min Rain = 0
KSVS 191935Z 34017G23KT 06/M04 A3026 RMK A01 T00641037  RH  049%=      5-min Rain = 0
KSVS 191940Z 34016G21KT 07/M04 A3026 RMK A01 T00651036  RH  049%=      5-min Rain = 0
KSVS 191945Z 33016KT 07/M04 A3025 RMK A01 T00661037  RH  048%=      5-min Rain = 0
KSVS 191950Z 34016G21KT 07/M04 A3025 RMK A01 T00661037  RH  048%=      5-min Rain = 0
KSVS 191955Z 35015G20KT 07/M04 A3025 RMK A01 T00691037  RH  047%=      5-min Rain = 0
KSVS 192000Z 33017G23KT 07/M04 A3025 RMK A01 T00661038  RH  047%=      5-min Rain = 0
KSVS 192005Z 34017G23KT 07/M04 A3025 RMK A01 T00691037  RH  047%=      5-min Rain = 0
KSVS 192010Z 35018G25KT 07/M04 A3025 RMK A01 T00681039  RH  047%=      5-min Rain = 0
KSVS 192015Z 34018G23KT 07/M04 A3025 RMK A01 T00711039  RH  046%=      5-min Rain = 0
KSVS 192020Z 35017G22KT 07/M04 A3025 RMK A01 T00721039  RH  045%=      5-min Rain = 0
KSVS 192025Z 35017KT 07/M04 A3025 RMK A01 T00701041  RH  045%=      5-min Rain = 0
KSVS 192030Z 34016KT 07/M04 A3025 RMK A01 T00691039  RH  046%=      5-min Rain = 0
KSVS 192035Z 34016KT 07/M04 A3025 RMK A01 T00741038  RH  045%=      5-min Rain = 0
KSVS 192040Z 34016G22KT 07/M04 A3024 RMK A01 T00731039  RH  045%=      5-min Rain = 0
KSVS 192045Z 33018KT 07/M04 A3024 RMK A01 T00711040  RH  045%=      5-min Rain = 0
KSVS 192050Z 33016G21KT 07/M04 A3025 RMK A01 T00711039  RH  046%=      5-min Rain = 0
KSVS 192055Z 33016G22KT 07/M04 A3025 RMK A01 T00721041  RH  045%=      5-min Rain = 0
KSVS 192100Z 33016G21KT 07/M04 A3025 RMK A01 T00741040  RH  044%=      5-min Rain = 0
KSVS 192105Z 33016KT 08/M04 A3025 RMK A01 T00751042  RH  044%=      5-min Rain = 0
KSVS 192110Z 33016KT 07/M04 A3025 RMK A01 T00731043  RH  043%=      5-min Rain = 0
KSVS 192115Z 33017G23KT 07/M04 A3026 RMK A01 T00731044  RH  043%=      5-min Rain = 0
KSVS 192120Z 34016KT 08/M04 A3026 RMK A01 T00761043  RH  043%=      5-min Rain = 0
KSVS 192125Z 33014KT 08/M04 A3026 RMK A01 T00771043  RH  042%=      5-min Rain = 0
KSVS 192130Z 34016KT 08/M04 A3026 RMK A01 T00781044  RH  042%=      5-min Rain = 0
KSVS 192135Z 34015KT 08/M04 A3026 RMK A01 T00791044  RH  042%=      5-min Rain = 0
KSVS 192140Z 35014KT 08/M04 A3026 RMK A01 T00801044  RH  041%=      5-min Rain = 0
KSVS 192145Z 35014KT 08/M04 A3026 RMK A01 T00781044  RH  042%=      5-min Rain = 0
KSVS 192150Z 33014KT 08/M04 A3026 RMK A01 T00791044  RH  042%=      5-min Rain = 0
KSVS 192155Z 34015KT 08/M05 A3026 RMK A01 T00791045  RH  041%=      5-min Rain = 0
KSVS 192200Z 35014KT 08/M05 A3026 RMK A01 T00791045  RH  041%=      5-min Rain = 0
KSVS 192205Z 34013KT 08/M05 A3026 RMK A01 T00791045  RH  041%=      5-min Rain = 0
KSVS 192210Z 35012KT 08/M04 A3026 RMK A01 T00801044  RH  041%=      5-min Rain = 0
KSVS 192215Z 34012KT 08/M04 A3026 RMK A01 T00791044  RH  042%=      5-min Rain = 0
KSVS 192220Z 34010G15KT 08/M04 A3026 RMK A01 T00811043  RH  041%=      5-min Rain = 0
KSVS 192225Z 34011KT 08/M04 A3026 RMK A01 T00801044  RH  041%=      5-min Rain = 0
KSVS 192230Z 35012KT 08/M04 A3026 RMK A01 T00801044  RH  042%=      5-min Rain = 0
KSVS 192235Z 34012KT 08/M04 A3026 RMK A01 T00791043  RH  042%=      5-min Rain = 0
KSVS 192240Z 34010G16KT 08/M04 A3026 RMK A01 T00791042  RH  042%=      5-min Rain = 0
KSVS 192245Z 33014KT 08/M04 A3026 RMK A01 T00781044  RH  042%=      5-min Rain = 0
KSVS 192250Z 33013KT 08/M05 A3026 RMK A01 T00761045  RH  042%=      5-min Rain = 0
KSVS 192255Z 34012KT 08/M05 A3026 RMK A01 T00761045  RH  042%=      5-min Rain = 0
KSVS 192300Z 33011KT 08/M04 A3026 RMK A01 T00751044  RH  043%=      5-min Rain = 0
KSVS 192305Z 33011KT 07/M05 A3027 RMK A01 T00741045  RH  043%=      5-min Rain = 0
KSVS 192310Z 33011KT 07/M05 A3027 RMK A01 T00731046  RH  043%=      5-min Rain = 0
KSVS 192315Z 34011KT 07/M05 A3026 RMK A01 T00711047  RH  043%=      5-min Rain = 0
KSVS 192320Z 33012KT 07/M05 A3027 RMK A01 T00701046  RH  044%=      5-min Rain = 0
KSVS 192325Z 33010KT 07/M05 A3026 RMK A01 T00681045  RH  044%=      5-min Rain = 0
KSVS 192330Z 32010KT 07/M05 A3026 RMK A01 T00661047  RH  045%=      5-min Rain = 0
KSVS 192335Z 33010KT 06/M05 A3026 RMK A01 T00631047  RH  045%=      5-min Rain = 0
KSVS 192340Z 34008KT 06/M05 A3026 RMK A01 T00591048  RH  046%=      5-min Rain = 0
KSVS 192345Z 33008KT 05/M05 A3026 RMK A01 T00541049  RH  048%=      5-min Rain = 0
KSVS 192350Z 33007KT 05/M05 A3026 RMK A01 T00511049  RH  049%=      5-min Rain = 0
KSVS 192355Z 33006KT 05/M05 A3026 RMK A01 T00451050  RH  050%=      5-min Rain = 0
KSVS 200000Z 33005KT 04/M05 A3027 RMK A01 T00401052  RH  051%=      5-min Rain = 0
KSVS 200005Z 35005KT 03/M05 A3027 RMK A01 T00341054  RH  053%=      5-min Rain = 0
KSVS 200010Z 36005KT 03/M06 A3027 RMK A01 T00291056  RH  054%=      5-min Rain = 0
KSVS 200015Z 00005KT 02/M06 A3027 RMK A01 T00211056  RH  057%=      5-min Rain = 0
KSVS 200020Z 01005KT 02/M05 A3027 RMK A01 T00211053  RH  058%=      5-min Rain = 0
KSVS 200025Z 01005KT 02/M06 A3027 RMK A01 T00201056  RH  057%=      5-min Rain = 0
KSVS 200030Z 35004KT 01/M06 A3028 RMK A01 T00121058  RH  060%=      5-min Rain = 0
KSVS 200035Z 34004KT 01/M06 A3027 RMK A01 T00111057  RH  060%=      5-min Rain = 0
KSVS 200040Z 32004KT 00/M07 A3027 RMK A01 T00011065  RH  061%=      5-min Rain = 0
KSVS 200045Z 33005KT M00/M06 A3027 RMK A01 T10011062  RH  063%=      5-min Rain = 0
KSVS 200050Z 34006KT M00/M06 A3027 RMK A01 T10011064  RH  062%=      5-min Rain = 0
KSVS 200055Z 35007KT M01/M07 A3027 RMK A01 T10061067  RH  064%=      5-min Rain = 0
KSVS 200100Z 35006KT M01/M07 A3028 RMK A01 T10121068  RH  066%=      5-min Rain = 0
KSVS 200105Z 33005KT M01/M07 A3028 RMK A01 T10141068  RH  067%=      5-min Rain = 0
KSVS 200110Z 32004KT M02/M07 A3028 RMK A01 T10161069  RH  067%=      5-min Rain = 0
KSVS 200115Z 35004KT M01/M07 A3028 RMK A01 T10131066  RH  067%=      5-min Rain = 0
KSVS 200120Z 02004KT M01/M06 A3027 RMK A01 T10071063  RH  066%=      5-min Rain = 0
KSVS 200125Z 04004KT M00/M06 A3027 RMK A01 T10021059  RH  065%=      5-min Rain = 0
KSVS 200130Z 04004KT 01/M05 A3026 RMK A01 T00131052  RH  062%=      5-min Rain = 0
KSVS 200135Z 04005KT 02/M06 A3026 RMK A01 T00151055  RH  060%=      5-min Rain = 0
KSVS 200140Z 04006KT 01/M06 A3025 RMK A01 T00071057  RH  062%=      5-min Rain = 0
KSVS 200145Z 05005KT 00/M06 A3025 RMK A01 T00021057  RH  065%=      5-min Rain = 0
KSVS 200150Z 05007KT 00/06 A3025 RMK A01 T00000-56  RH  066%=      5-min Rain = 0
KSVS 200155Z 06007KT M00/M06 A3025 RMK A01 T10041057  RH  068%=      5-min Rain = 0
KSVS 200200Z 08004KT M01/M06 A3025 RMK A01 T10061057  RH  068%=      5-min Rain = 0
KSVS 200205Z 09004KT M01/M06 A3025 RMK A01 T10141063  RH  069%=      5-min Rain = 0
KSVS 200210Z 08004KT M01/M06 A3025 RMK A01 T10131061  RH  070%=      5-min Rain = 0
KSVS 200215Z 08004KT M00/M06 A3026 RMK A01 T10041056  RH  068%=      5-min Rain = 0
KSVS 200220Z 08003KT 00/M06 A3027 RMK A01 T00021055  RH  066%=      5-min Rain = 0
KSVS 200225Z 06004KT 00/06 A3027 RMK A01 T00000-55  RH  066%=      5-min Rain = 0
KSVS 200230Z 05004KT 01/M05 A3027 RMK A01 T00061052  RH  065%=      5-min Rain = 0
KSVS 200235Z 05004KT 01/M05 A3027 RMK A01 T00061052  RH  065%=      5-min Rain = 0
KSVS 200240Z 06003KT 01/M05 A3028 RMK A01 T00071051  RH  065%=      5-min Rain = 0
KSVS 200245Z 06002KT M01/M07 A3028 RMK A01 T10051065  RH  064%=      5-min Rain = 0
KSVS 200250Z 08002KT M01/M06 A3028 RMK A01 T10131060  RH  071%=      5-min Rain = 0
KSVS 200255Z 09003KT M00/M05 A3028 RMK A01 T10011051  RH  070%=      5-min Rain = 0
KSVS 200300Z 09004KT 01/M05 A3028 RMK A01 T00071050  RH  066%=      5-min Rain = 0
KSVS 200305Z 08004KT 01/M05 A3028 RMK A01 T00091051  RH  065%=      5-min Rain = 0
KSVS 200310Z 11003KT 01/M05 A3028 RMK A01 T00051053  RH  065%=      5-min Rain = 0
KSVS 200315Z 13003KT M00/M06 A3028 RMK A01 T10031058  RH  067%=      5-min Rain = 0
KSVS 200320Z 16004KT M01/M06 A3028 RMK A01 T10101056  RH  071%=      5-min Rain = 0
KSVS 200325Z 16005KT M02/M06 A3028 RMK A01 T10211064  RH  073%=      5-min Rain = 0
KSVS 200330Z 16005KT M02/M06 A3028 RMK A01 T10211058  RH  076%=      5-min Rain = 0
KSVS 200335Z 16005KT M01/M05 A3028 RMK A01 T10141054  RH  074%=      5-min Rain = 0
KSVS 200340Z 15007KT M02/M06 A3027 RMK A01 T10221062  RH  074%=      5-min Rain = 0
KSVS 200345Z 15007KT M03/M06 A3027 RMK A01 T10281063  RH  077%=      5-min Rain = 0
KSVS 200350Z 15006KT M03/M06 A3028 RMK A01 T10301062  RH  079%=      5-min Rain = 0
KSVS 200355Z 14007KT M03/M06 A3027 RMK A01 T10261059  RH  078%=      5-min Rain = 0
KSVS 200400Z 15007KT M03/M06 A3027 RMK A01 T10281061  RH  078%=      5-min Rain = 0
KSVS 200405Z 14007KT M03/M06 A3028 RMK A01 T10251057  RH  079%=      5-min Rain = 0
KSVS 200410Z 13007KT M02/M06 A3028 RMK A01 T10221056  RH  078%=      5-min Rain = 0
KSVS 200415Z 13007KT M02/M06 A3028 RMK A01 T10221057  RH  077%=      5-min Rain = 0
KSVS 200420Z 13008KT M03/M06 A3027 RMK A01 T10261059  RH  078%=      5-min Rain = 0
KSVS 200425Z 12007KT M03/M06 A3027 RMK A01 T10311061  RH  080%=      5-min Rain = 0
KSVS 200430Z 13007KT M03/M06 A3027 RMK A01 T10291057  RH  081%=      5-min Rain = 0
KSVS 200435Z 13008KT M03/M06 A3027 RMK A01 T10281057  RH  081%=      5-min Rain = 0
KSVS 200440Z 14007KT M03/M06 A3027 RMK A01 T10311059  RH  081%=      5-min Rain = 0
KSVS 200445Z 14008KT M03/M06 A3027 RMK A01 T10321060  RH  082%=      5-min Rain = 0
KSVS 200450Z 14006KT M03/M06 A3026 RMK A01 T10311058  RH  082%=      5-min Rain = 0
KSVS 200455Z 13007KT M03/M06 A3026 RMK A01 T10281056  RH  081%=      5-min Rain = 0
KSVS 200500Z 13008KT M03/M06 A3027 RMK A01 T10291058  RH  080%=      5-min Rain = 0
KSVS 200505Z 13007KT M03/M06 A3027 RMK A01 T10311058  RH  081%=      5-min Rain = 0
KSVS 200510Z 13008KT M03/M06 A3027 RMK A01 T10311059  RH  082%=      5-min Rain = 0
KSVS 200515Z 13005KT M04/M06 A3028 RMK A01 T10351061  RH  082%=      5-min Rain = 0
KSVS 200520Z 13005KT M04/M06 A3029 RMK A01 T10371062  RH  083%=      5-min Rain = 0
KSVS 200525Z 14006KT M04/M06 A3028 RMK A01 T10381062  RH  084%=      5-min Rain = 0
KSVS 200530Z 14008KT M04/M06 A3028 RMK A01 T10411064  RH  084%=      5-min Rain = 0
KSVS 200535Z 14007KT M04/M06 A3029 RMK A01 T10391060  RH  085%=      5-min Rain = 0
KSVS 200540Z 14008KT M04/M06 A3029 RMK A01 T10381059  RH  085%=      5-min Rain = 0
KSVS 200545Z 14007KT M04/M06 A3029 RMK A01 T10361058  RH  085%=      5-min Rain = 0
KSVS 200550Z 14008KT M04/M06 A3029 RMK A01 T10371059  RH  085%=      5-min Rain = 0
KSVS 200555Z 14008KT M04/M06 A3029 RMK A01 T10371060  RH  084%=      5-min Rain = 0

Page generated in 0.0094 seconds.